createdAt,value
2022-12-19T00:00:41.000Z,4.3
2022-12-19T00:01:54.000Z,4.3
2022-12-19T00:03:06.000Z,4.1
2022-12-19T00:05:30.000Z,4.3
2022-12-19T00:06:42.000Z,4.3
2022-12-19T00:07:54.000Z,4.3
2022-12-19T00:09:06.000Z,4.3
2022-12-19T00:10:18.000Z,4.3
2022-12-19T00:11:24.471Z,4.3
2022-12-19T00:11:30.000Z,4.3
2022-12-19T00:12:42.000Z,4.3
2022-12-19T00:13:54.000Z,4.3
2022-12-19T00:15:06.000Z,4.3
2022-12-19T00:16:18.000Z,4.4
2022-12-19T00:18:42.000Z,4.3
2022-12-19T00:19:54.000Z,4.4
2022-12-19T00:21:07.000Z,4.3
2022-12-19T00:22:19.000Z,4.3
2022-12-19T00:23:31.000Z,4.3
2022-12-19T00:24:36.550Z,4.4
2022-12-19T00:24:43.000Z,4.3
2022-12-19T00:25:55.000Z,4.3
2022-12-19T00:27:08.000Z,4.3
2022-12-19T00:28:20.000Z,4.3
2022-12-19T00:29:32.000Z,4.3
2022-12-19T00:30:43.000Z,4.3
2022-12-19T00:31:55.000Z,4.3
2022-12-19T00:33:07.000Z,4.3
2022-12-19T00:34:20.000Z,4.3
2022-12-19T00:35:32.000Z,4.3
2022-12-19T00:36:44.000Z,4.3
2022-12-19T00:37:56.000Z,4.3
2022-12-19T00:39:08.000Z,4.3
2022-12-19T00:40:21.000Z,4.3
2022-12-19T00:41:33.000Z,4.3
2022-12-19T00:42:45.000Z,4.3
2022-12-19T00:43:57.000Z,4.4
2022-12-19T00:45:09.000Z,4.3
2022-12-19T00:46:22.000Z,4.3
2022-12-19T00:47:33.000Z,4.3
2022-12-19T00:48:45.000Z,4.3
2022-12-19T00:49:57.000Z,4.3
2022-12-19T00:51:09.000Z,4.3
2022-12-19T00:52:21.000Z,4.3
2022-12-19T00:53:34.000Z,4.3
2022-12-19T00:54:46.000Z,4.3
2022-12-19T00:55:58.000Z,4.3
2022-12-19T00:57:10.000Z,4.3
2022-12-19T00:58:22.000Z,4.3
2022-12-19T00:59:35.000Z,4.3
2022-12-19T01:00:47.000Z,4.2
2022-12-19T01:01:59.000Z,4.3
2022-12-19T01:03:10.000Z,4.3
2022-12-19T01:04:22.000Z,4.3
2022-12-19T01:05:35.000Z,4.4
2022-12-19T01:06:47.000Z,4.3
2022-12-19T01:07:59.000Z,4.4
2022-12-19T01:09:11.000Z,4.7
2022-12-19T01:10:23.000Z,4.3
2022-12-19T01:11:35.000Z,4.3
2022-12-19T01:12:48.000Z,4.3
2022-12-19T01:14:00.000Z,4.4
2022-12-19T01:15:12.000Z,4.3
2022-12-19T01:16:24.000Z,4.3
2022-12-19T01:17:36.000Z,4.3
2022-12-19T01:18:48.000Z,4.3
2022-12-19T01:20:00.000Z,4.3
2022-12-19T01:21:12.000Z,4.3
2022-12-19T01:22:24.000Z,4.3
2022-12-19T01:23:36.000Z,4.3
2022-12-19T01:24:48.000Z,4.3
2022-12-19T01:26:01.000Z,4.3
2022-12-19T01:27:13.000Z,4.3
2022-12-19T01:28:25.000Z,4.3
2022-12-19T01:30:49.000Z,4.3
2022-12-19T01:32:02.000Z,4.3
2022-12-19T01:33:14.000Z,4.3
2022-12-19T01:34:25.000Z,4.3
2022-12-19T01:35:37.000Z,4.3
2022-12-19T01:36:43.764Z,4.4
2022-12-19T01:36:49.000Z,4.3
2022-12-19T01:38:02.000Z,4.3
2022-12-19T01:39:14.000Z,4.3
2022-12-19T01:40:26.000Z,4.3
2022-12-19T01:41:38.000Z,4.3
2022-12-19T01:42:50.000Z,4.3
2022-12-19T01:44:02.000Z,4.4
2022-12-19T01:45:15.000Z,4.3
2022-12-19T01:46:27.000Z,4.3
2022-12-19T01:47:39.000Z,4.3
2022-12-19T01:48:51.000Z,4.3
2022-12-19T01:50:02.000Z,4.3
2022-12-19T01:51:15.000Z,4.3
2022-12-19T01:52:27.000Z,4.3
2022-12-19T01:53:39.000Z,4.4
2022-12-19T01:54:51.000Z,4.4
2022-12-19T01:56:03.000Z,4.3
2022-12-19T01:57:16.000Z,4.3
2022-12-19T01:58:28.000Z,4.1
2022-12-19T01:59:40.000Z,4.4
2022-12-19T02:00:52.000Z,4.3
2022-12-19T02:02:04.000Z,4.3
2022-12-19T02:03:16.000Z,4.3
2022-12-19T02:04:29.000Z,4.3
2022-12-19T02:05:40.000Z,4.3
2022-12-19T02:06:52.000Z,4.4
2022-12-19T02:08:04.000Z,4.3
2022-12-19T02:09:16.000Z,4.3
2022-12-19T02:10:29.000Z,4.3
2022-12-19T02:11:41.000Z,4.3
2022-12-19T02:12:53.000Z,4.3
2022-12-19T02:14:05.000Z,4.3
2022-12-19T02:15:17.000Z,4.3
2022-12-19T02:16:30.000Z,4.3
2022-12-19T02:17:42.000Z,4.3
2022-12-19T02:18:54.000Z,4.3
2022-12-19T02:20:06.000Z,4.3
2022-12-19T02:21:17.000Z,4.3
2022-12-19T02:22:29.000Z,4.3
2022-12-19T02:23:42.000Z,4.3
2022-12-19T02:24:54.000Z,4.3
2022-12-19T02:26:06.000Z,4.3
2022-12-19T02:27:18.000Z,4.3
2022-12-19T02:28:30.000Z,4.3
2022-12-19T02:29:43.000Z,4.3
2022-12-19T02:30:55.000Z,4.3
2022-12-19T02:32:07.000Z,4.5
2022-12-19T02:33:19.000Z,4.3
2022-12-19T02:34:31.000Z,4.3
2022-12-19T02:35:44.000Z,4.5
2022-12-19T02:36:55.000Z,4.6
2022-12-19T02:38:07.000Z,4.5
2022-12-19T02:39:19.000Z,4.3
2022-12-19T02:40:31.000Z,4.3
2022-12-19T02:41:43.000Z,4.3
2022-12-19T02:42:56.000Z,4.5
2022-12-19T02:44:08.000Z,4.3
2022-12-19T02:45:20.000Z,4.3
2022-12-19T02:46:32.000Z,4.3
2022-12-19T02:47:44.000Z,4.3
2022-12-19T02:48:57.000Z,4.5
2022-12-19T02:50:09.000Z,4.3
2022-12-19T02:51:21.000Z,4.4
2022-12-19T02:52:32.000Z,4.5
2022-12-19T02:53:44.000Z,4.3
2022-12-19T02:54:57.000Z,4.6
2022-12-19T02:56:09.000Z,4.5
2022-12-19T02:57:21.000Z,4.3
2022-12-19T02:58:33.000Z,4.5
2022-12-19T02:59:45.000Z,4.6
2022-12-19T03:00:57.000Z,4.5
2022-12-19T03:02:10.000Z,4.3
2022-12-19T03:03:22.000Z,4.3
2022-12-19T03:04:34.000Z,4.5
2022-12-19T03:05:46.000Z,4.3
2022-12-19T03:06:58.000Z,4.2
2022-12-19T03:08:10.000Z,4.3
2022-12-19T03:09:22.000Z,4.3
2022-12-19T03:10:34.000Z,4.6
2022-12-19T03:11:46.000Z,4.5
2022-12-19T03:12:58.000Z,4.5
2022-12-19T03:14:11.000Z,4.6
2022-12-19T03:15:23.000Z,4.3
2022-12-19T03:16:35.000Z,4.6
2022-12-19T03:17:47.000Z,4.6
2022-12-19T03:18:59.000Z,4.5
2022-12-19T03:20:11.000Z,4.3
2022-12-19T03:21:24.000Z,4.3
2022-12-19T03:22:36.000Z,4.3
2022-12-19T03:23:47.000Z,4.6
2022-12-19T03:24:59.000Z,4.5
2022-12-19T03:26:11.000Z,4.6
2022-12-19T03:27:24.000Z,4.6
2022-12-19T03:28:36.000Z,4.5
2022-12-19T03:29:48.000Z,4.5
2022-12-19T03:31:00.000Z,4.3
2022-12-19T03:32:12.000Z,4.3
2022-12-19T03:33:25.000Z,4.5
2022-12-19T03:34:37.000Z,4.3
2022-12-19T03:35:49.000Z,4.5
2022-12-19T03:37:01.000Z,4.6
2022-12-19T03:38:13.000Z,4.6
2022-12-19T03:39:24.000Z,4.4
2022-12-19T03:40:37.000Z,4.6
2022-12-19T03:41:49.000Z,4.5
2022-12-19T03:43:01.000Z,4.3
2022-12-19T03:44:13.000Z,4.5
2022-12-19T03:45:25.000Z,4.5
2022-12-19T03:46:38.000Z,4.6
2022-12-19T03:47:50.000Z,4.6
2022-12-19T03:49:02.000Z,4.5
2022-12-19T03:50:14.000Z,4.5
2022-12-19T03:51:26.000Z,4.6
2022-12-19T03:52:39.000Z,4.5
2022-12-19T03:53:51.000Z,4.5
2022-12-19T03:55:02.000Z,4.5
2022-12-19T03:56:14.000Z,4.5
2022-12-19T03:57:26.000Z,4.5
2022-12-19T03:58:38.000Z,4.7
2022-12-19T03:59:51.000Z,4.5
2022-12-19T04:01:03.000Z,4.5
2022-12-19T04:02:15.000Z,4.5
2022-12-19T04:03:27.000Z,4.5
2022-12-19T04:04:39.000Z,4.5
2022-12-19T04:05:52.000Z,4.6
2022-12-19T04:07:04.000Z,4.6
2022-12-19T04:08:16.000Z,4.5
2022-12-19T04:09:28.000Z,4.6
2022-12-19T04:10:39.000Z,4.5
2022-12-19T04:11:52.000Z,4.6
2022-12-19T04:13:04.000Z,4.6
2022-12-19T04:14:16.000Z,4.6
2022-12-19T04:15:28.000Z,4.5
2022-12-19T04:16:39.000Z,4.6
2022-12-19T04:17:51.000Z,4.5
2022-12-19T04:19:04.000Z,4.5
2022-12-19T04:20:16.000Z,4.5
2022-12-19T04:21:28.000Z,4.6
2022-12-19T04:22:40.000Z,4.5
2022-12-19T04:23:52.000Z,4.5
2022-12-19T04:25:05.000Z,4.6
2022-12-19T04:26:17.000Z,4.6
2022-12-19T04:27:29.000Z,4.6
2022-12-19T04:28:41.000Z,4.5
2022-12-19T04:29:53.000Z,4.6
2022-12-19T04:31:06.000Z,4.6
2022-12-19T04:32:17.000Z,4.5
2022-12-19T04:33:29.000Z,4.5
2022-12-19T04:34:41.000Z,4.5
2022-12-19T04:35:53.000Z,4.5
2022-12-19T04:37:05.000Z,4.6
2022-12-19T04:38:18.000Z,4.5
2022-12-19T04:39:30.000Z,4.6
2022-12-19T04:40:42.000Z,4.5
2022-12-19T04:41:54.000Z,4.5
2022-12-19T04:43:06.000Z,4.6
2022-12-19T04:44:19.000Z,4.4
2022-12-19T04:45:31.000Z,4.6
2022-12-19T04:46:43.000Z,4.5
2022-12-19T04:47:54.000Z,4.6
2022-12-19T04:49:06.000Z,4.6
2022-12-19T04:50:19.000Z,4.6
2022-12-19T04:51:31.000Z,4.6
2022-12-19T04:52:43.000Z,4.5
2022-12-19T04:53:55.000Z,4.6
2022-12-19T04:55:07.000Z,4.6
2022-12-19T04:56:19.000Z,4.6
2022-12-19T04:57:32.000Z,4.5
2022-12-19T04:58:44.000Z,4.6
2022-12-19T05:01:08.000Z,4.6
2022-12-19T05:02:20.000Z,4.5
2022-12-19T05:03:32.000Z,4.5
2022-12-19T05:04:44.000Z,4.5
2022-12-19T05:05:56.000Z,4.5
2022-12-19T05:07:02.700Z,4.6
2022-12-19T05:07:08.000Z,4.6
2022-12-19T05:08:20.000Z,4.5
2022-12-19T05:09:33.000Z,4.5
2022-12-19T05:10:45.000Z,4.6
2022-12-19T05:11:57.000Z,4.6
2022-12-19T05:13:09.000Z,4.5
2022-12-19T05:14:21.000Z,4.6
2022-12-19T05:15:33.000Z,4.6
2022-12-19T05:16:46.000Z,4.5
2022-12-19T05:17:58.000Z,4.3
2022-12-19T05:19:09.000Z,4.5
2022-12-19T05:20:21.000Z,4.5
2022-12-19T05:21:33.000Z,4.6
2022-12-19T05:22:46.000Z,4.6
2022-12-19T05:25:10.000Z,4.6
2022-12-19T05:26:22.000Z,4.6
2022-12-19T05:27:34.000Z,4.5
2022-12-19T05:28:47.000Z,4.6
2022-12-19T05:29:59.000Z,4.5
2022-12-19T05:31:04.475Z,4.5
2022-12-19T05:31:11.000Z,4.5
2022-12-19T05:32:23.000Z,5
2022-12-19T05:33:35.000Z,4.6
2022-12-19T05:34:47.000Z,4.5
2022-12-19T05:37:11.000Z,4.6
2022-12-19T05:38:23.000Z,4.5
2022-12-19T05:39:35.000Z,4.6
2022-12-19T05:40:47.000Z,4.5
2022-12-19T05:42:00.000Z,4.5
2022-12-19T05:43:05.348Z,4.5
2022-12-19T05:43:12.000Z,4.5
2022-12-19T05:44:24.000Z,4.5
2022-12-19T05:45:36.000Z,4.6
2022-12-19T05:46:48.000Z,4.6
2022-12-19T05:48:01.000Z,4.5
2022-12-19T05:49:13.000Z,4.6
2022-12-19T05:50:24.000Z,4.5
2022-12-19T05:51:36.000Z,4.5
2022-12-19T05:52:48.000Z,4.6
2022-12-19T05:54:01.000Z,4.5
2022-12-19T05:55:13.000Z,4.5
2022-12-19T05:56:25.000Z,4.5
2022-12-19T05:57:37.000Z,4.5
2022-12-19T05:58:49.000Z,4.5
2022-12-19T06:00:01.000Z,4.6
2022-12-19T06:01:14.000Z,4.5
2022-12-19T06:02:26.000Z,4.5
2022-12-19T06:03:38.000Z,4.6
2022-12-19T06:04:50.000Z,4.6
2022-12-19T06:06:01.000Z,4.6
2022-12-19T06:07:14.000Z,4.5
2022-12-19T06:08:26.000Z,4.6
2022-12-19T06:09:38.000Z,4.6
2022-12-19T06:10:50.000Z,4.5
2022-12-19T06:12:02.000Z,4.5
2022-12-19T06:13:14.000Z,4.5
2022-12-19T06:14:27.000Z,4.6
2022-12-19T06:15:39.000Z,4.6
2022-12-19T06:16:51.000Z,4.5
2022-12-19T06:18:03.000Z,4.6
2022-12-19T06:19:15.000Z,4.5
2022-12-19T06:20:28.000Z,4.6
2022-12-19T06:21:40.000Z,4.5
2022-12-19T06:22:51.000Z,4.5
2022-12-19T06:24:03.000Z,4.5
2022-12-19T06:25:15.000Z,4.6
2022-12-19T06:26:28.000Z,4.6
2022-12-19T06:27:40.000Z,4.5
2022-12-19T06:30:04.000Z,4.6
2022-12-19T06:31:16.000Z,4.5
2022-12-19T06:32:28.000Z,4.5
2022-12-19T06:33:41.000Z,4.6
2022-12-19T06:34:53.000Z,4.8
2022-12-19T06:35:58.625Z,4.5
2022-12-19T06:36:05.000Z,4.5
2022-12-19T06:37:17.000Z,4.6
2022-12-19T06:38:28.000Z,4.6
2022-12-19T06:39:41.000Z,4.5
2022-12-19T06:40:53.000Z,4.5
2022-12-19T06:42:05.000Z,4.7
2022-12-19T06:43:17.000Z,4.5
2022-12-19T06:44:29.000Z,4.7
2022-12-19T06:45:42.000Z,4.7
2022-12-19T06:46:54.000Z,4.7
2022-12-19T06:48:06.000Z,4.6
2022-12-19T06:49:18.000Z,4.7
2022-12-19T06:50:30.000Z,4.5
2022-12-19T06:51:42.000Z,4.5
2022-12-19T06:52:55.000Z,4.5
2022-12-19T06:54:06.000Z,4.6
2022-12-19T06:55:18.000Z,4.7
2022-12-19T06:57:42.000Z,4.5
2022-12-19T06:58:55.000Z,4.8
2022-12-19T07:00:07.000Z,4.5
2022-12-19T07:01:19.000Z,4.8
2022-12-19T07:02:31.000Z,4.7
2022-12-19T07:03:36.968Z,4.6
2022-12-19T07:03:43.000Z,4.5
2022-12-19T07:04:56.000Z,4.6
2022-12-19T07:06:08.000Z,4.5
2022-12-19T07:07:20.000Z,4.7
2022-12-19T07:08:32.000Z,4.7
2022-12-19T07:09:43.000Z,4.5
2022-12-19T07:10:56.000Z,4.7
2022-12-19T07:12:08.000Z,4.6
2022-12-19T07:13:20.000Z,4.6
2022-12-19T07:14:32.000Z,4.7
2022-12-19T07:15:44.000Z,4.5
2022-12-19T07:16:56.000Z,4.7
2022-12-19T07:18:09.000Z,4.6
2022-12-19T07:19:21.000Z,4.5
2022-12-19T07:20:33.000Z,4.7
2022-12-19T07:21:45.000Z,4.6
2022-12-19T07:22:57.000Z,4.7
2022-12-19T07:24:10.000Z,4.6
2022-12-19T07:25:21.000Z,4.7
2022-12-19T07:26:33.000Z,4.7
2022-12-19T07:27:45.000Z,4.7
2022-12-19T07:28:57.000Z,4.7
2022-12-19T07:30:10.000Z,4.7
2022-12-19T07:31:22.000Z,4.5
2022-12-19T07:32:34.000Z,4.7
2022-12-19T07:33:46.000Z,4.7
2022-12-19T07:34:58.000Z,4.7
2022-12-19T07:36:10.000Z,4.5
2022-12-19T07:37:23.000Z,4.5
2022-12-19T07:38:35.000Z,4.5
2022-12-19T07:39:47.000Z,4.7
2022-12-19T07:40:58.000Z,4.5
2022-12-19T07:42:10.000Z,4.7
2022-12-19T07:43:23.000Z,4.6
2022-12-19T07:44:35.000Z,4.5
2022-12-19T07:45:47.000Z,4.7
2022-12-19T07:46:59.000Z,4.7
2022-12-19T07:48:11.000Z,4.7
2022-12-19T07:49:24.000Z,4.7
2022-12-19T07:50:36.000Z,4.7
2022-12-19T07:51:48.000Z,4.7
2022-12-19T07:53:00.000Z,4.8
2022-12-19T07:54:12.000Z,4.7
2022-12-19T07:55:24.000Z,4.7
2022-12-19T07:56:36.000Z,4.8
2022-12-19T07:57:48.000Z,4.7
2022-12-19T07:59:00.000Z,4.8
2022-12-19T08:00:12.000Z,4.7
2022-12-19T08:01:24.000Z,4.7
2022-12-19T08:02:37.000Z,4.8
2022-12-19T08:03:49.000Z,4.7
2022-12-19T08:05:01.000Z,4.7
2022-12-19T08:06:13.000Z,4.8
2022-12-19T08:07:25.000Z,4.8
2022-12-19T08:08:38.000Z,4.7
2022-12-19T08:09:50.000Z,4.8
2022-12-19T08:11:02.000Z,4.6
2022-12-19T08:12:13.000Z,4.8
2022-12-19T08:13:25.000Z,4.7
2022-12-19T08:15:50.000Z,4.7
2022-12-19T08:17:02.000Z,4.7
2022-12-19T08:18:13.000Z,4.8
2022-12-19T08:19:25.000Z,4.8
2022-12-19T08:20:37.000Z,4.8
2022-12-19T08:21:44.215Z,4.7
2022-12-19T08:21:50.000Z,4.6
2022-12-19T08:23:02.000Z,4.6
2022-12-19T08:24:14.000Z,4.7
2022-12-19T08:25:26.000Z,4.7
2022-12-19T08:26:38.000Z,4.6
2022-12-19T08:27:51.000Z,4.8
2022-12-19T08:29:03.000Z,4.8
2022-12-19T08:30:15.000Z,4.8
2022-12-19T08:31:27.000Z,4.9
2022-12-19T08:32:39.000Z,4.7
2022-12-19T08:33:50.000Z,4.8
2022-12-19T08:35:03.000Z,4.7
2022-12-19T08:36:15.000Z,4.8
2022-12-19T08:37:27.000Z,4.6
2022-12-19T08:38:39.000Z,4.8
2022-12-19T08:39:51.000Z,4.8
2022-12-19T08:41:04.000Z,4.8
2022-12-19T08:43:28.000Z,4.7
2022-12-19T08:44:40.000Z,4.8
2022-12-19T08:45:52.000Z,4.6
2022-12-19T08:47:05.000Z,4.7
2022-12-19T08:48:17.000Z,4.8
2022-12-19T08:49:22.532Z,4.7
2022-12-19T08:49:28.000Z,4.6
2022-12-19T08:50:40.000Z,4.7
2022-12-19T08:51:52.000Z,4.6
2022-12-19T08:53:04.000Z,4.6
2022-12-19T08:54:17.000Z,4.7
2022-12-19T08:55:29.000Z,4.7
2022-12-19T08:56:41.000Z,4.8
2022-12-19T08:57:53.000Z,4.7
2022-12-19T08:59:05.000Z,4.8
2022-12-19T09:00:18.000Z,4.8
2022-12-19T09:01:30.000Z,4.7
2022-12-19T09:02:42.000Z,4.8
2022-12-19T09:03:54.000Z,4.7
2022-12-19T09:05:05.000Z,4.7
2022-12-19T09:06:18.000Z,5
2022-12-19T09:07:30.000Z,4.7
2022-12-19T09:08:42.000Z,4.7
2022-12-19T09:09:54.000Z,4.6
2022-12-19T09:11:06.000Z,4.7
2022-12-19T09:12:18.000Z,4.8
2022-12-19T09:13:31.000Z,4.6
2022-12-19T09:14:43.000Z,4.6
2022-12-19T09:15:55.000Z,4.8
2022-12-19T09:17:07.000Z,4.8
2022-12-19T09:18:19.000Z,4.6
2022-12-19T09:19:32.000Z,4.7
2022-12-19T09:20:43.000Z,4.7
2022-12-19T09:21:55.000Z,4.6
2022-12-19T09:23:07.000Z,4.9
2022-12-19T09:24:19.000Z,4.6
2022-12-19T09:25:32.000Z,4.6
2022-12-19T09:26:44.000Z,4.8
2022-12-19T09:27:56.000Z,4.8
2022-12-19T09:29:08.000Z,4.8
2022-12-19T09:30:20.000Z,4.8
2022-12-19T09:31:32.000Z,4.9
2022-12-19T09:32:45.000Z,4.6
2022-12-19T09:33:57.000Z,4.8
2022-12-19T09:35:09.000Z,4.8
2022-12-19T09:36:20.000Z,4.6
2022-12-19T09:37:32.000Z,4.7
2022-12-19T09:38:45.000Z,4.7
2022-12-19T09:39:57.000Z,4.8
2022-12-19T09:41:09.000Z,4.7
2022-12-19T09:42:21.000Z,4.6
2022-12-19T09:43:33.000Z,4.8
2022-12-19T09:44:46.000Z,4.8
2022-12-19T09:45:58.000Z,4.7
2022-12-19T09:47:10.000Z,5
2022-12-19T09:48:22.000Z,4.6
2022-12-19T09:49:34.000Z,4.7
2022-12-19T09:50:46.000Z,5
2022-12-19T09:51:58.000Z,4.8
2022-12-19T09:53:10.000Z,4.9
2022-12-19T09:54:22.000Z,4.7
2022-12-19T09:55:34.000Z,4.8
2022-12-19T09:56:46.000Z,5
2022-12-19T09:57:59.000Z,4.8
2022-12-19T09:59:11.000Z,4.6
2022-12-19T10:00:23.000Z,4.7
2022-12-19T10:01:35.000Z,5.1
2022-12-19T10:02:47.000Z,4.6
2022-12-19T10:04:00.000Z,4.8
2022-12-19T10:05:12.000Z,4.9
2022-12-19T10:06:24.000Z,4.7
2022-12-19T10:07:35.000Z,5.1
2022-12-19T10:08:47.000Z,5
2022-12-19T10:09:59.000Z,4.8
2022-12-19T10:11:12.000Z,4.9
2022-12-19T10:12:24.000Z,5
2022-12-19T10:13:36.000Z,5
2022-12-19T10:14:48.000Z,5
2022-12-19T10:16:00.000Z,4.8
2022-12-19T10:17:13.000Z,4.6
2022-12-19T10:18:25.000Z,5
2022-12-19T10:19:37.000Z,4.8
2022-12-19T10:20:49.000Z,5.1
2022-12-19T10:22:01.000Z,4.8
2022-12-19T10:23:13.000Z,4.8
2022-12-19T10:24:25.000Z,5
2022-12-19T10:25:37.000Z,4.8
2022-12-19T10:26:49.000Z,4.8
2022-12-19T10:28:01.000Z,4.8
2022-12-19T10:29:13.000Z,4.8
2022-12-19T10:30:26.000Z,4.8
2022-12-19T10:32:50.000Z,5.2
2022-12-19T10:34:02.000Z,5
2022-12-19T10:35:14.000Z,4.7
2022-12-19T10:36:27.000Z,4.8
2022-12-19T10:37:39.000Z,5
2022-12-19T10:38:44.657Z,4.8
2022-12-19T10:38:51.000Z,5.1
2022-12-19T10:40:02.000Z,4.8
2022-12-19T10:41:14.000Z,5
2022-12-19T10:42:27.000Z,5
2022-12-19T10:43:39.000Z,4.8
2022-12-19T10:44:51.000Z,5
2022-12-19T10:46:03.000Z,5.2
2022-12-19T10:47:15.000Z,4.8
2022-12-19T10:48:27.000Z,4.9
2022-12-19T10:49:40.000Z,4.8
2022-12-19T10:50:52.000Z,4.8
2022-12-19T10:52:04.000Z,5
2022-12-19T10:53:16.000Z,5
2022-12-19T10:54:28.000Z,4.8
2022-12-19T10:55:40.000Z,4.8
2022-12-19T10:56:52.000Z,5
2022-12-19T10:58:04.000Z,4.9
2022-12-19T10:59:16.000Z,5
2022-12-19T11:00:28.000Z,4.7
2022-12-19T11:01:41.000Z,5.1
2022-12-19T11:02:53.000Z,5
2022-12-19T11:04:05.000Z,4.8
2022-12-19T11:05:17.000Z,5.2
2022-12-19T11:06:29.000Z,5
2022-12-19T11:07:41.000Z,5
2022-12-19T11:08:54.000Z,5
2022-12-19T11:10:06.000Z,4.9
2022-12-19T11:12:29.000Z,5.1
2022-12-19T11:13:41.000Z,4.8
2022-12-19T11:14:54.000Z,5.2
2022-12-19T11:16:06.000Z,5.1
2022-12-19T11:17:18.000Z,5
2022-12-19T11:18:23.881Z,4.9
2022-12-19T11:18:30.000Z,5
2022-12-19T11:19:42.000Z,4.8
2022-12-19T11:20:55.000Z,5.1
2022-12-19T11:23:19.000Z,5
2022-12-19T11:24:31.000Z,5.3
2022-12-19T11:25:43.000Z,5
2022-12-19T11:26:54.000Z,5.2
2022-12-19T11:28:07.000Z,4.7
2022-12-19T11:29:19.000Z,5.1
2022-12-19T11:30:31.000Z,5
2022-12-19T11:31:43.000Z,5
2022-12-19T11:32:55.000Z,4.8
2022-12-19T11:34:08.000Z,5.3
2022-12-19T11:35:20.000Z,5.2
2022-12-19T11:36:32.000Z,5.1
2022-12-19T11:37:44.000Z,4.9
2022-12-19T11:38:56.000Z,5.2
2022-12-19T11:41:21.000Z,5.2
2022-12-19T11:42:32.000Z,5.2
2022-12-19T11:43:44.000Z,5.3
2022-12-19T11:44:56.000Z,5.2
2022-12-19T11:46:08.000Z,5.3
2022-12-19T11:47:15.357Z,5.2
2022-12-19T11:47:21.000Z,5
2022-12-19T11:48:33.000Z,5.2
2022-12-19T11:49:45.000Z,5.3
2022-12-19T11:50:57.000Z,5.2
2022-12-19T11:52:09.000Z,4.9
2022-12-19T11:53:22.000Z,5.2
2022-12-19T11:54:34.000Z,5.1
2022-12-19T11:55:46.000Z,5.3
2022-12-19T11:56:58.000Z,5.2
2022-12-19T11:58:09.000Z,5.2
2022-12-19T11:59:21.000Z,4.9
2022-12-19T12:00:34.000Z,5.2
2022-12-19T12:01:46.000Z,5
2022-12-19T12:02:58.000Z,5
2022-12-19T12:04:10.000Z,5
2022-12-19T12:05:22.000Z,4.9
2022-12-19T12:06:35.000Z,5.2
2022-12-19T12:07:47.000Z,5
2022-12-19T12:08:59.000Z,5
2022-12-19T12:10:11.000Z,5.1
2022-12-19T12:11:23.000Z,5.2
2022-12-19T12:12:36.000Z,5.3
2022-12-19T12:13:47.000Z,5
2022-12-19T12:14:59.000Z,5.3
2022-12-19T12:16:11.000Z,5.2
2022-12-19T12:17:23.000Z,5.2
2022-12-19T12:18:35.000Z,4.9
2022-12-19T12:19:47.000Z,5.2
2022-12-19T12:20:59.000Z,5
2022-12-19T12:22:11.000Z,5.1
2022-12-19T12:23:23.000Z,5
2022-12-19T12:24:35.000Z,5
2022-12-19T12:25:48.000Z,5.2
2022-12-19T12:27:00.000Z,4.9
2022-12-19T12:28:12.000Z,4.9
2022-12-19T12:29:24.000Z,5
2022-12-19T12:30:36.000Z,4.9
2022-12-19T12:31:48.000Z,5.1
2022-12-19T12:33:01.000Z,5.1
2022-12-19T12:34:13.000Z,5.3
2022-12-19T12:35:24.000Z,5.2
2022-12-19T12:36:36.000Z,5.3
2022-12-19T12:37:48.000Z,4.9
2022-12-19T12:39:01.000Z,5.2
2022-12-19T12:40:13.000Z,5
2022-12-19T12:41:25.000Z,5.3
2022-12-19T12:42:37.000Z,5.3
2022-12-19T12:43:49.000Z,5
2022-12-19T12:45:02.000Z,5.2
2022-12-19T12:46:14.000Z,5.3
2022-12-19T12:47:26.000Z,5.3
2022-12-19T12:48:38.000Z,5
2022-12-19T12:49:50.000Z,5
2022-12-19T12:51:01.000Z,5
2022-12-19T12:53:26.000Z,5
2022-12-19T12:54:38.000Z,4.9
2022-12-19T12:57:02.000Z,5.3
2022-12-19T12:58:15.000Z,5.3
2022-12-19T12:59:20.585Z,4.9
2022-12-19T12:59:27.000Z,4.9
2022-12-19T13:00:39.000Z,5.2
2022-12-19T13:01:51.000Z,5.2
2022-12-19T13:02:57.000Z,5
2022-12-19T13:03:03.000Z,5.3
2022-12-19T13:04:16.000Z,5.3
2022-12-19T13:05:28.000Z,5.2
2022-12-19T13:06:39.000Z,5.3
2022-12-19T13:07:51.000Z,5.3
2022-12-19T13:09:03.000Z,5.2
2022-12-19T13:10:15.000Z,4.9
2022-12-19T13:11:28.000Z,5.3
2022-12-19T13:12:40.000Z,5.2
2022-12-19T13:13:52.000Z,5.3
2022-12-19T13:15:04.000Z,5.4
2022-12-19T13:16:16.000Z,5
2022-12-19T13:17:29.000Z,5.2
2022-12-19T13:18:41.000Z,5.4
2022-12-19T13:19:53.000Z,5.2
2022-12-19T13:21:05.000Z,5
2022-12-19T13:22:16.000Z,5.2
2022-12-19T13:23:28.000Z,5.3
2022-12-19T13:24:41.000Z,5.3
2022-12-19T13:25:53.000Z,5.4
2022-12-19T13:27:05.000Z,5.3
2022-12-19T13:28:17.000Z,5.4
2022-12-19T13:29:29.000Z,5.5
2022-12-19T13:30:42.000Z,5.6
2022-12-19T13:31:54.000Z,5.5
2022-12-19T13:33:06.000Z,5.1
2022-12-19T13:34:18.000Z,5.1
2022-12-19T13:35:30.000Z,5.2
2022-12-19T13:36:43.000Z,5.2
2022-12-19T13:37:54.000Z,5.4
2022-12-19T13:39:06.000Z,5.2
2022-12-19T13:40:18.000Z,5.3
2022-12-19T13:41:30.000Z,5.5
2022-12-19T13:42:42.000Z,5.4
2022-12-19T13:43:55.000Z,5.1
2022-12-19T13:45:07.000Z,5.2
2022-12-19T13:46:19.000Z,5.1
2022-12-19T13:47:31.000Z,5.1
2022-12-19T13:48:43.000Z,5.4
2022-12-19T13:49:56.000Z,5.3
2022-12-19T13:51:08.000Z,5.2
2022-12-19T13:52:20.000Z,5.4
2022-12-19T13:53:31.000Z,5.4
2022-12-19T13:54:43.000Z,5.5
2022-12-19T13:55:56.000Z,5.3
2022-12-19T13:57:08.000Z,5.2
2022-12-19T13:58:20.000Z,5.4
2022-12-19T13:59:32.000Z,5.5
2022-12-19T14:00:44.000Z,5.4
2022-12-19T14:01:56.000Z,5.2
2022-12-19T14:03:09.000Z,5.2
2022-12-19T14:04:21.000Z,5.2
2022-12-19T14:05:33.000Z,5.4
2022-12-19T14:06:45.000Z,5.3
2022-12-19T14:07:57.000Z,5.6
2022-12-19T14:09:09.000Z,5.2
2022-12-19T14:10:21.000Z,5.4
2022-12-19T14:11:33.000Z,5.2
2022-12-19T14:12:45.000Z,5.2
2022-12-19T14:13:57.000Z,5.3
2022-12-19T14:15:09.000Z,5.3
2022-12-19T14:16:22.000Z,5.1
2022-12-19T14:17:34.000Z,5.3
2022-12-19T14:18:46.000Z,5.4
2022-12-19T14:19:58.000Z,5.3
2022-12-19T14:21:10.000Z,5.2
2022-12-19T14:22:23.000Z,5.2
2022-12-19T14:23:35.000Z,5.4
2022-12-19T14:24:46.000Z,5.4
2022-12-19T14:25:58.000Z,5.2
2022-12-19T14:27:10.000Z,5.4
2022-12-19T14:28:23.000Z,5.2
2022-12-19T14:29:35.000Z,5.2
2022-12-19T14:30:47.000Z,5.4
2022-12-19T14:31:59.000Z,5.5
2022-12-19T14:33:11.000Z,5.7
2022-12-19T14:34:23.000Z,5.4
2022-12-19T14:35:36.000Z,5.2
2022-12-19T14:36:48.000Z,5.3
2022-12-19T14:38:00.000Z,5.4
2022-12-19T14:39:12.000Z,5.2
2022-12-19T14:40:23.000Z,5.2
2022-12-19T14:41:36.000Z,5.4
2022-12-19T14:42:48.000Z,5.2
2022-12-19T14:44:00.000Z,5.2
2022-12-19T14:45:12.000Z,5.4
2022-12-19T14:46:24.000Z,5.5
2022-12-19T14:47:36.000Z,5.4
2022-12-19T14:48:49.000Z,5.6
2022-12-19T14:50:01.000Z,5.6
2022-12-19T14:51:13.000Z,5.5
2022-12-19T14:52:25.000Z,5.6
2022-12-19T14:53:37.000Z,5.6
2022-12-19T14:54:50.000Z,5.6
2022-12-19T14:56:01.000Z,5.4
2022-12-19T14:57:13.000Z,5.3
2022-12-19T14:58:25.000Z,5.4
2022-12-19T14:59:37.000Z,5.4
2022-12-19T15:00:50.000Z,5.2
2022-12-19T15:02:02.000Z,5.7
2022-12-19T15:03:14.000Z,5.4
2022-12-19T15:04:26.000Z,5.3
2022-12-19T15:05:38.000Z,5.4
2022-12-19T15:06:50.000Z,5.6
2022-12-19T15:08:03.000Z,5.6
2022-12-19T15:09:15.000Z,5.6
2022-12-19T15:10:27.000Z,5.6
2022-12-19T15:11:38.000Z,5.6
2022-12-19T15:12:50.000Z,5.6
2022-12-19T15:14:03.000Z,5.4
2022-12-19T15:15:15.000Z,5.3
2022-12-19T15:16:27.000Z,5.4
2022-12-19T15:17:39.000Z,5.6
2022-12-19T15:18:51.000Z,5.6
2022-12-19T15:20:04.000Z,5.6
2022-12-19T15:21:16.000Z,5.3
2022-12-19T15:22:28.000Z,5.6
2022-12-19T15:23:40.000Z,5.6
2022-12-19T15:24:52.000Z,5.3
2022-12-19T15:26:04.000Z,5.6
2022-12-19T15:27:16.000Z,5.6
2022-12-19T15:28:28.000Z,5.5
2022-12-19T15:29:40.000Z,5.4
2022-12-19T15:30:52.000Z,5.6
2022-12-19T15:32:04.000Z,5.4
2022-12-19T15:33:17.000Z,5.3
2022-12-19T15:34:29.000Z,5.4
2022-12-19T15:35:41.000Z,5.4
2022-12-19T15:36:53.000Z,5.4
2022-12-19T15:38:05.000Z,5.6
2022-12-19T15:39:17.000Z,5.6
2022-12-19T15:40:30.000Z,5.3
2022-12-19T15:41:42.000Z,5.6
2022-12-19T15:42:53.000Z,5.3
2022-12-19T15:44:05.000Z,5.6
2022-12-19T15:45:17.000Z,5.4
2022-12-19T15:46:30.000Z,5.5
2022-12-19T15:47:42.000Z,5.7
2022-12-19T15:48:54.000Z,5.4
2022-12-19T15:50:06.000Z,5.4
2022-12-19T15:51:18.000Z,5.6
2022-12-19T15:52:31.000Z,5.4
2022-12-19T15:53:43.000Z,5.5
2022-12-19T15:54:55.000Z,5.6
2022-12-19T15:56:07.000Z,5.3
2022-12-19T15:57:19.000Z,5.6
2022-12-19T15:58:30.000Z,5.4
2022-12-19T15:59:43.000Z,5.6
2022-12-19T16:00:55.000Z,5.4
2022-12-19T16:02:07.000Z,5.6
2022-12-19T16:03:19.000Z,5.6
2022-12-19T16:04:31.000Z,5.6
2022-12-19T16:05:44.000Z,5.4
2022-12-19T16:06:56.000Z,5.3
2022-12-19T16:08:08.000Z,5.3
2022-12-19T16:09:20.000Z,5.6
2022-12-19T16:10:32.000Z,5.4
2022-12-19T16:11:44.000Z,5.3
2022-12-19T16:12:57.000Z,5.3
2022-12-19T16:14:08.000Z,5.7
2022-12-19T16:15:20.000Z,5.7
2022-12-19T16:16:32.000Z,5.7
2022-12-19T16:17:44.000Z,5.6
2022-12-19T16:18:57.000Z,5.7
2022-12-19T16:20:09.000Z,5.4
2022-12-19T16:21:20.000Z,5.4
2022-12-19T16:22:32.000Z,5.8
2022-12-19T16:23:44.000Z,5.6
2022-12-19T16:24:57.000Z,5.6
2022-12-19T16:26:09.000Z,5.8
2022-12-19T16:27:21.000Z,5.8
2022-12-19T16:28:33.000Z,5.8
2022-12-19T16:29:45.000Z,5.6
2022-12-19T16:30:57.000Z,5.8
2022-12-19T16:32:10.000Z,5.8
2022-12-19T16:33:22.000Z,5.5
2022-12-19T16:34:34.000Z,5.6
2022-12-19T16:35:46.000Z,5.6
2022-12-19T16:36:57.000Z,5.6
2022-12-19T16:38:10.000Z,5.8